createdAt,value
2018-04-10T00:01:43.500Z,32.23
2018-04-10T00:04:10.187Z,30.83
2018-04-10T00:06:36.887Z,33.07
2018-04-10T00:09:03.587Z,33.70
2018-04-10T00:11:30.359Z,34.10
2018-04-10T00:13:57.038Z,33.03
2018-04-10T00:16:23.732Z,32.40
2018-04-10T00:18:50.447Z,33.50
2018-04-10T00:21:17.124Z,34.47
2018-04-10T00:23:43.823Z,34.30
2018-04-10T00:26:10.514Z,33.67
2018-04-10T00:28:37.219Z,36.50
2018-04-10T00:31:03.898Z,34.17
2018-04-10T00:33:30.574Z,34.53
2018-04-10T00:35:57.278Z,32.43
2018-04-10T00:38:24.043Z,35.07
2018-04-10T00:40:50.739Z,38.47
2018-04-10T00:43:17.420Z,37.27
2018-04-10T00:45:44.118Z,36.17
2018-04-10T00:48:10.810Z,37.53
2018-04-10T00:50:37.514Z,36.97
2018-04-10T00:53:10.026Z,38.70
2018-04-10T00:55:36.746Z,38.50
2018-04-10T00:58:03.495Z,37.77
2018-04-10T01:00:30.172Z,36.43
2018-04-10T01:02:56.891Z,37.30
2018-04-10T01:05:23.572Z,37.47
2018-04-10T01:07:50.326Z,36.40
2018-04-10T01:10:17.011Z,35.97
2018-04-10T01:12:43.718Z,37.60
2018-04-10T01:15:10.443Z,38.47
2018-04-10T01:17:37.123Z,37.87
2018-04-10T01:20:03.834Z,36.73
2018-04-10T01:22:30.524Z,37.33
2018-04-10T01:24:57.218Z,37.53
2018-04-10T01:27:23.921Z,37.40
2018-04-10T01:29:50.610Z,38.10
2018-04-10T01:32:17.286Z,35.60
2018-04-10T01:34:44.037Z,34.00
2018-04-10T01:37:10.703Z,37.67
2018-04-10T01:39:37.383Z,37.40
2018-04-10T01:42:04.090Z,37.97
2018-04-10T01:44:30.772Z,36.80
2018-04-10T01:46:57.466Z,36.20
2018-04-10T01:49:24.164Z,35.83
2018-04-10T01:51:50.866Z,36.27
2018-04-10T01:54:17.650Z,37.07
2018-04-10T01:56:44.347Z,38.20
2018-04-10T01:59:11.027Z,37.70
2018-04-10T02:01:37.729Z,37.30
2018-04-10T02:04:04.446Z,37.87
2018-04-10T02:06:31.214Z,35.03
2018-04-10T02:08:57.912Z,35.80
2018-04-10T02:11:24.597Z,37.23
2018-04-10T02:13:51.290Z,37.80
2018-04-10T02:16:17.970Z,36.27
2018-04-10T02:18:44.662Z,38.10
2018-04-10T02:21:11.330Z,37.93
2018-04-10T02:23:38.017Z,37.37
2018-04-10T02:26:04.704Z,37.97
2018-04-10T02:28:31.371Z,36.67
2018-04-10T02:30:58.038Z,34.73
2018-04-10T02:33:24.733Z,32.97
2018-04-10T02:35:51.413Z,32.67
2018-04-10T02:38:18.121Z,34.10
2018-04-10T02:40:44.800Z,34.63
2018-04-10T02:43:11.494Z,36.33
2018-04-10T02:45:38.158Z,36.40
2018-04-10T02:48:04.867Z,35.40
2018-04-10T02:50:31.526Z,38.30
2018-04-10T02:52:58.233Z,37.00
2018-04-10T02:55:24.900Z,40.47
2018-04-10T02:57:51.570Z,38.03
2018-04-10T03:00:18.251Z,39.47
2018-04-10T03:02:44.934Z,38.03
2018-04-10T03:05:11.633Z,37.13
2018-04-10T03:07:38.305Z,34.27
2018-04-10T03:10:04.981Z,30.97
2018-04-10T03:12:31.673Z,32.77
2018-04-10T03:14:58.368Z,36.53
2018-04-10T03:17:25.067Z,34.10
2018-04-10T03:19:51.754Z,37.77
2018-04-10T03:22:18.440Z,40.27
2018-04-10T03:24:45.170Z,37.97
2018-04-10T03:27:11.858Z,38.70
2018-04-10T03:29:38.580Z,35.97
2018-04-10T03:32:05.254Z,35.43
2018-04-10T03:34:31.933Z,37.13
2018-04-10T03:36:58.682Z,39.63
2018-04-10T03:39:25.387Z,36.50
2018-04-10T03:41:52.067Z,38.30
2018-04-10T03:44:18.736Z,34.90
2018-04-10T03:46:45.450Z,37.43
2018-04-10T03:49:12.108Z,30.90
2018-04-10T03:51:38.820Z,30.93
2018-04-10T03:54:05.511Z,28.67
2018-04-10T03:56:32.300Z,32.30
2018-04-10T03:58:58.975Z,32.30
2018-04-10T04:01:25.666Z,33.63
2018-04-10T04:03:52.378Z,28.00
2018-04-10T04:06:19.083Z,27.17
2018-04-10T04:08:45.778Z,28.00
2018-04-10T04:11:12.463Z,28.20
2018-04-10T04:13:39.151Z,35.83
2018-04-10T04:16:05.924Z,37.73
2018-04-10T04:18:38.538Z,33.97
2018-04-10T04:21:11.134Z,37.90
2018-04-10T04:23:37.844Z,37.67
2018-04-10T04:26:04.556Z,36.20
2018-04-10T04:28:31.206Z,33.53
2018-04-10T04:30:58.854Z,29.93
2018-04-10T04:33:25.547Z,30.17
2018-04-10T04:35:52.235Z,33.10
2018-04-10T04:38:18.990Z,26.67
2018-04-10T04:40:45.744Z,29.20
2018-04-10T04:43:13.109Z,30.03
2018-04-10T04:45:39.811Z,30.87
2018-04-10T04:48:06.524Z,32.37
2018-04-10T04:50:33.214Z,34.63
2018-04-10T04:52:59.927Z,33.40
2018-04-10T04:55:26.614Z,30.30
2018-04-10T04:57:53.311Z,31.87
2018-04-10T05:00:20.139Z,31.97
2018-04-10T05:02:46.815Z,37.00
2018-04-10T05:05:13.523Z,34.40
2018-04-10T05:07:40.263Z,34.80
2018-04-10T05:10:06.955Z,33.20
2018-04-10T05:12:33.654Z,33.47
2018-04-10T05:15:00.342Z,35.03
2018-04-10T05:17:27.067Z,34.90
2018-04-10T05:19:53.783Z,29.43
2018-04-10T05:22:20.476Z,27.60
2018-04-10T05:24:47.158Z,25.60
2018-04-10T05:27:13.849Z,28.00
2018-04-10T05:29:40.761Z,30.70
2018-04-10T05:32:07.454Z,32.20
2018-04-10T05:34:34.159Z,32.77
2018-04-10T05:37:00.834Z,37.03
2018-04-10T05:39:27.538Z,33.40
2018-04-10T05:41:54.214Z,34.27
2018-04-10T05:44:20.932Z,31.67
2018-04-10T05:46:47.622Z,32.80
2018-04-10T05:49:14.310Z,29.40
2018-04-10T05:51:41.014Z,30.70
2018-04-10T05:54:07.730Z,29.07
2018-04-10T05:56:34.433Z,33.13
2018-04-10T05:59:01.116Z,28.70
2018-04-10T06:01:27.866Z,28.70
2018-04-10T06:03:54.569Z,28.13
2018-04-10T06:06:21.263Z,25.57
2018-04-10T06:08:47.974Z,28.90
2018-04-10T06:11:14.690Z,28.57
2018-04-10T06:13:41.394Z,26.87
2018-04-10T06:16:08.074Z,29.80
2018-04-10T06:18:34.780Z,27.83
2018-04-10T06:21:01.583Z,27.10
2018-04-10T06:23:28.284Z,26.40
2018-04-10T06:25:54.971Z,26.10
2018-04-10T06:28:21.668Z,27.50
2018-04-10T06:30:48.355Z,24.87
2018-04-10T06:33:15.044Z,25.63
2018-04-10T06:35:41.751Z,26.43
2018-04-10T06:38:08.422Z,24.03
2018-04-10T06:40:35.126Z,25.63
2018-04-10T06:43:01.811Z,21.90
2018-04-10T06:45:28.551Z,24.43
2018-04-10T06:47:55.259Z,23.43
2018-04-10T06:50:21.962Z,24.57
2018-04-10T06:52:48.653Z,24.17
2018-04-10T06:55:15.349Z,24.60
2018-04-10T06:57:42.053Z,21.43
2018-04-10T07:00:08.733Z,22.20
2018-04-10T07:02:35.462Z,20.33
2018-04-10T07:05:02.157Z,22.40
2018-04-10T07:07:28.855Z,20.23
2018-04-10T07:09:55.562Z,20.80
2018-04-10T07:12:22.244Z,19.07
2018-04-10T07:14:48.954Z,18.20
2018-04-10T07:17:15.751Z,20.00
2018-04-10T07:19:42.451Z,19.27
2018-04-10T07:22:09.315Z,16.63
2018-04-10T07:24:36.027Z,16.60
2018-04-10T07:27:02.738Z,16.70
2018-04-10T07:29:29.450Z,15.40
2018-04-10T07:31:56.141Z,17.40
2018-04-10T07:34:22.825Z,15.10
2018-04-10T07:36:49.527Z,15.10
2018-04-10T07:39:16.212Z,12.40
2018-04-10T07:41:42.935Z,12.30
2018-04-10T07:44:09.626Z,11.07
2018-04-10T07:46:36.303Z,12.00
2018-04-10T07:49:03.003Z,11.23
2018-04-10T07:51:29.733Z,12.87
2018-04-10T07:53:56.464Z,13.23
2018-04-10T07:56:23.160Z,11.87
2018-04-10T07:58:49.855Z,11.67
2018-04-10T08:01:16.539Z,9.80
2018-04-10T08:03:43.223Z,9.30
2018-04-10T08:06:09.919Z,9.07
2018-04-10T08:08:36.615Z,9.93
2018-04-10T08:11:03.322Z,9.60
2018-04-10T08:13:30.019Z,8.63
2018-04-10T08:15:56.704Z,9.67
2018-04-10T08:18:23.393Z,8.47
2018-04-10T08:20:50.088Z,8.50
2018-04-10T08:23:16.770Z,8.90
2018-04-10T08:25:43.498Z,8.80
2018-04-10T08:28:10.173Z,7.50
2018-04-10T08:30:36.875Z,9.00
2018-04-10T08:33:03.546Z,7.07
2018-04-10T08:35:30.248Z,6.83
2018-04-10T08:37:56.965Z,8.10
2018-04-10T08:40:23.599Z,7.97
2018-04-10T08:42:50.366Z,6.97
2018-04-10T08:45:17.056Z,6.10
2018-04-10T08:47:43.762Z,8.60
2018-04-10T08:50:10.532Z,9.50
2018-04-10T08:52:37.236Z,10.43
2018-04-10T08:55:03.915Z,8.83
2018-04-10T08:57:30.606Z,8.87
2018-04-10T08:59:57.291Z,8.70
2018-04-10T09:02:24.031Z,9.13
2018-04-10T09:04:50.740Z,7.67
2018-04-10T09:07:17.437Z,8.03
2018-04-10T09:09:44.117Z,8.73
2018-04-10T09:12:11.012Z,8.37
2018-04-10T09:14:37.711Z,7.60
2018-04-10T09:17:04.387Z,6.37
2018-04-10T09:19:31.070Z,6.90
2018-04-10T09:21:57.855Z,5.80
2018-04-10T09:24:24.556Z,5.87
2018-04-10T09:26:51.421Z,6.20
2018-04-10T09:29:18.084Z,5.20
2018-04-10T09:31:44.815Z,4.73
2018-04-10T09:34:11.528Z,5.00
2018-04-10T09:36:38.230Z,4.40
2018-04-10T09:41:48.836Z,4.50
2018-04-10T09:49:43.527Z,5.70
2018-04-10T09:52:10.210Z,4.77
2018-04-10T09:54:36.990Z,5.03
2018-04-10T09:57:03.797Z,4.57
2018-04-10T09:59:30.495Z,4.00
2018-04-10T10:01:57.168Z,4.20
2018-04-10T10:04:23.875Z,4.43
2018-04-10T10:06:50.580Z,4.70
2018-04-10T10:09:17.334Z,4.63
2018-04-10T10:11:44.073Z,4.67
2018-04-10T10:14:10.751Z,4.67
2018-04-10T10:16:37.441Z,4.57
2018-04-10T10:19:04.131Z,4.20
2018-04-10T10:21:30.818Z,4.67
2018-04-10T10:23:57.525Z,5.03
2018-04-10T10:26:24.236Z,4.80
2018-04-10T10:28:51.095Z,4.83
2018-04-10T10:31:17.773Z,4.50
2018-04-10T10:33:44.480Z,4.33
2018-04-10T10:36:11.166Z,3.77
2018-04-10T10:38:37.832Z,4.73
2018-04-10T10:41:04.530Z,4.60
2018-04-10T10:43:31.195Z,4.43
2018-04-10T10:45:58.018Z,5.00
2018-04-10T10:48:24.702Z,4.97
2018-04-10T10:50:51.407Z,5.43
2018-04-10T10:53:18.112Z,4.57
2018-04-10T10:55:44.828Z,4.77
2018-04-10T10:58:11.506Z,4.37
2018-04-10T11:00:38.181Z,4.00
2018-04-10T11:03:04.878Z,3.93
2018-04-10T11:05:31.546Z,4.00
2018-04-10T11:07:58.259Z,3.70
2018-04-10T11:10:24.946Z,4.00
2018-04-10T11:12:51.640Z,3.67
2018-04-10T11:15:18.319Z,3.33
2018-04-10T11:17:44.990Z,3.77
2018-04-10T11:20:11.693Z,4.33
2018-04-10T11:22:38.515Z,3.00
2018-04-10T11:25:05.196Z,2.90
2018-04-10T11:27:31.887Z,3.50
2018-04-10T11:29:58.644Z,3.23
2018-04-10T11:32:25.319Z,4.30
2018-04-10T11:34:52.001Z,4.90
2018-04-10T11:37:18.696Z,4.20
2018-04-10T11:39:45.506Z,4.43
2018-04-10T11:42:12.204Z,5.13
2018-04-10T11:44:38.902Z,4.50
2018-04-10T11:47:05.639Z,4.80
2018-04-10T11:49:32.322Z,5.00
2018-04-10T11:51:59.028Z,4.30
2018-04-10T11:54:25.717Z,5.00
2018-04-10T11:56:52.395Z,5.50
2018-04-10T11:59:19.103Z,4.57
2018-04-10T12:01:45.774Z,3.33
2018-04-10T12:04:12.520Z,3.63
2018-04-10T12:06:39.221Z,4.20
2018-04-10T12:09:05.915Z,4.47
2018-04-10T12:11:32.615Z,4.30
2018-04-10T12:13:59.415Z,2.83
2018-04-10T12:16:26.118Z,3.40
2018-04-10T12:18:52.807Z,2.60
2018-04-10T12:21:19.527Z,3.63
2018-04-10T12:23:46.175Z,3.63
2018-04-10T12:26:12.896Z,3.37
2018-04-10T12:28:39.563Z,3.20
2018-04-10T12:31:06.279Z,3.30
2018-04-10T12:33:32.971Z,3.30
2018-04-10T12:35:59.691Z,2.80
2018-04-10T12:38:26.370Z,2.40
2018-04-10T12:40:53.055Z,2.77
2018-04-10T12:43:19.779Z,3.00
2018-04-10T12:45:46.450Z,3.60
2018-04-10T12:48:13.169Z,2.50
2018-04-10T12:50:39.927Z,2.53
2018-04-10T12:53:06.653Z,2.53
2018-04-10T12:55:33.321Z,2.40
2018-04-10T12:58:00.015Z,2.50
2018-04-10T13:00:26.748Z,2.17
2018-04-10T13:02:53.414Z,2.53
2018-04-10T13:05:20.086Z,2.20
2018-04-10T13:07:46.802Z,2.57
2018-04-10T13:10:13.546Z,2.80
2018-04-10T13:12:40.240Z,3.00
2018-04-10T13:15:06.927Z,2.60
2018-04-10T13:17:33.626Z,2.47
2018-04-10T13:20:00.340Z,2.77
2018-04-10T13:22:27.024Z,2.37
2018-04-10T13:24:53.723Z,2.30
2018-04-10T13:27:20.419Z,2.33
2018-04-10T13:29:47.128Z,2.67
2018-04-10T13:32:13.811Z,2.80
2018-04-10T13:34:40.515Z,2.53
2018-04-10T13:37:07.222Z,3.23
2018-04-10T13:39:33.911Z,2.83
2018-04-10T13:42:00.599Z,2.67
2018-04-10T13:44:27.310Z,2.63
2018-04-10T13:46:54.022Z,2.40
2018-04-10T13:49:20.707Z,3.27
2018-04-10T13:51:47.468Z,2.33
2018-04-10T13:54:14.155Z,2.30
2018-04-10T13:56:40.844Z,3.20
2018-04-10T13:59:07.528Z,3.07
2018-04-10T14:01:34.260Z,2.67
2018-04-10T14:04:00.940Z,3.67
2018-04-10T14:06:27.616Z,2.70
2018-04-10T14:08:54.312Z,2.13
2018-04-10T14:11:20.994Z,2.93
2018-04-10T14:13:47.714Z,3.00
2018-04-10T14:16:14.401Z,2.97
2018-04-10T14:18:41.206Z,2.77
2018-04-10T14:21:07.912Z,3.10
2018-04-10T14:23:34.587Z,2.77
2018-04-10T14:26:01.298Z,2.90
2018-04-10T14:28:28.003Z,3.20
2018-04-10T14:30:54.680Z,3.40
2018-04-10T14:33:21.494Z,2.87
2018-04-10T14:35:48.336Z,3.30
2018-04-10T14:38:15.091Z,3.10
2018-04-10T14:40:41.771Z,3.43
2018-04-10T14:43:08.479Z,4.00
2018-04-10T14:45:35.218Z,3.63
2018-04-10T14:48:01.934Z,3.37
2018-04-10T14:50:28.641Z,4.53
2018-04-10T14:52:55.331Z,4.50
2018-04-10T14:55:22.024Z,3.37
2018-04-10T14:57:48.787Z,4.20
2018-04-10T15:00:15.497Z,6.00
2018-04-10T15:02:42.172Z,5.40
2018-04-10T15:05:08.894Z,5.87
2018-04-10T15:07:35.600Z,5.57
2018-04-10T15:10:02.333Z,5.40
2018-04-10T15:12:29.024Z,4.57
2018-04-10T15:14:55.690Z,5.53
2018-04-10T15:17:22.407Z,4.40
2018-04-10T15:19:49.091Z,5.23
2018-04-10T15:22:15.793Z,5.60
2018-04-10T15:24:42.485Z,4.33
2018-04-10T15:27:09.163Z,5.37
2018-04-10T15:29:36.082Z,5.17
2018-04-10T15:32:02.771Z,4.53
2018-04-10T15:34:29.461Z,4.97
2018-04-10T15:36:56.167Z,5.63
2018-04-10T15:39:23.005Z,4.63
2018-04-10T15:41:49.707Z,6.60
2018-04-10T15:44:16.434Z,4.97
2018-04-10T15:46:43.157Z,4.80
2018-04-10T15:49:10.071Z,5.50
2018-04-10T15:51:36.759Z,4.77
2018-04-10T15:54:03.647Z,5.50
2018-04-10T15:56:30.326Z,5.10
2018-04-10T15:58:57.068Z,5.07
2018-04-10T16:01:23.810Z,7.17
2018-04-10T16:03:50.546Z,6.50
2018-04-10T16:06:17.299Z,5.90
2018-04-10T16:08:44.005Z,7.00
2018-04-10T16:11:10.788Z,8.37
2018-04-10T16:13:37.515Z,7.30
2018-04-10T16:16:04.199Z,6.73
2018-04-10T16:18:30.927Z,7.10
2018-04-10T16:20:57.638Z,7.67
2018-04-10T16:23:24.329Z,8.20
2018-04-10T16:25:51.031Z,7.60
2018-04-10T16:28:17.863Z,8.60
2018-04-10T16:30:44.568Z,9.00
2018-04-10T16:33:11.272Z,8.37
2018-04-10T16:35:37.969Z,7.10
2018-04-10T16:38:04.701Z,8.37
2018-04-10T16:40:31.391Z,8.10
2018-04-10T16:42:58.079Z,9.47
2018-04-10T16:45:24.775Z,9.63
2018-04-10T16:47:51.515Z,8.80
2018-04-10T16:50:19.846Z,8.77
2018-04-10T16:52:46.510Z,9.07
2018-04-10T16:55:13.245Z,9.37
2018-04-10T16:57:39.976Z,12.37
2018-04-10T17:00:06.948Z,11.10
2018-04-10T17:02:33.670Z,9.77
2018-04-10T17:05:00.463Z,11.03
2018-04-10T17:07:27.187Z,11.23
2018-04-10T17:09:53.943Z,10.37
2018-04-10T17:12:20.637Z,11.10
2018-04-10T17:14:47.337Z,10.90
2018-04-10T17:17:14.043Z,11.03
2018-04-10T17:19:40.772Z,12.23
2018-04-10T17:22:07.485Z,11.20
2018-04-10T17:24:34.216Z,11.83
2018-04-10T17:27:00.912Z,12.03
2018-04-10T17:29:27.758Z,11.97
2018-04-10T17:31:54.496Z,12.27
2018-04-10T17:34:21.278Z,13.80
2018-04-10T17:36:47.996Z,13.00
2018-04-10T17:39:14.687Z,13.07
2018-04-10T17:41:41.430Z,13.27
2018-04-10T17:44:08.119Z,13.03
2018-04-10T17:46:34.848Z,13.30
2018-04-10T17:49:01.564Z,13.87
2018-04-10T17:51:28.290Z,13.83
2018-04-10T17:53:55.053Z,13.57
2018-04-10T17:56:21.748Z,14.83
2018-04-10T17:58:48.473Z,14.37
2018-04-10T18:01:15.215Z,14.87
2018-04-10T18:03:41.923Z,20.53
2018-04-10T18:06:08.645Z,19.83
2018-04-10T18:08:35.434Z,17.00
2018-04-10T18:11:02.180Z,15.90
2018-04-10T18:13:29.010Z,15.50
2018-04-10T18:15:55.705Z,14.50
2018-04-10T18:18:22.445Z,14.23
2018-04-10T18:20:49.153Z,14.37
2018-04-10T18:23:15.845Z,17.10
2018-04-10T18:25:42.630Z,16.40
2018-04-10T18:28:09.313Z,16.83
2018-04-10T18:30:36.016Z,17.67
2018-04-10T18:33:02.767Z,18.90
2018-04-10T18:35:29.492Z,19.30
2018-04-10T18:37:56.254Z,18.30
2018-04-10T18:40:22.955Z,17.50
2018-04-10T18:42:49.683Z,13.90
2018-04-10T18:45:16.388Z,14.87
2018-04-10T18:47:43.092Z,13.40
2018-04-10T18:50:09.818Z,13.23
2018-04-10T18:52:36.529Z,15.50
2018-04-10T18:55:03.252Z,14.20
2018-04-10T18:57:29.956Z,14.90
2018-04-10T18:59:56.694Z,13.73
2018-04-10T19:02:23.393Z,16.17
2018-04-10T19:04:50.121Z,16.47
2018-04-10T19:07:16.854Z,19.93
2018-04-10T19:09:43.583Z,21.20
2018-04-10T19:14:44.219Z,23.20
2018-04-10T19:17:10.962Z,23.43
2018-04-10T19:19:37.640Z,25.70
2018-04-10T19:22:04.368Z,26.37
2018-04-10T19:24:31.051Z,25.77
2018-04-10T19:26:57.796Z,26.00
2018-04-10T19:29:24.609Z,27.37
2018-04-10T19:31:51.311Z,31.10
2018-04-10T19:34:18.039Z,32.77
2018-04-10T19:36:45.622Z,36.50
2018-04-10T19:39:12.334Z,41.23
2018-04-10T19:41:39.054Z,42.00
2018-04-10T19:44:05.780Z,35.37
2018-04-10T19:46:32.469Z,37.53
2018-04-10T19:48:59.206Z,40.97
2018-04-10T19:51:25.933Z,41.33
2018-04-10T19:53:52.625Z,42.83
2018-04-10T19:56:19.356Z,34.10
2018-04-10T19:58:47.035Z,45.40
2018-04-10T20:01:13.754Z,47.67
2018-04-10T20:03:40.599Z,64.50
2018-04-10T20:06:07.441Z,57.37
2018-04-10T20:08:34.234Z,61.23
2018-04-10T20:11:01.020Z,57.47
2018-04-10T20:13:27.983Z,55.50
2018-04-10T20:15:54.727Z,49.87
2018-04-10T20:18:21.547Z,48.00
2018-04-10T20:20:48.247Z,49.63
2018-04-10T20:23:15.047Z,43.23
2018-04-10T20:25:41.785Z,41.20
2018-04-10T20:28:08.503Z,41.60
2018-04-10T20:30:35.211Z,42.40
2018-04-10T20:33:01.988Z,41.67
2018-04-10T20:35:28.698Z,41.23
2018-04-10T20:37:55.434Z,38.63
2018-04-10T20:40:22.117Z,43.00
2018-04-10T20:42:48.817Z,43.47
2018-04-10T20:45:15.665Z,47.47
2018-04-10T20:47:42.403Z,47.43
2018-04-10T20:50:09.127Z,44.07
2018-04-10T20:52:35.840Z,39.13
2018-04-10T20:55:02.560Z,38.93
2018-04-10T20:57:29.416Z,32.70
2018-04-10T20:59:56.140Z,37.70
2018-04-10T21:02:22.834Z,35.20
2018-04-10T21:04:49.528Z,32.60
2018-04-10T21:07:16.479Z,34.90
2018-04-10T21:09:43.148Z,31.90
2018-04-10T21:12:09.863Z,34.50
2018-04-10T21:14:36.573Z,34.03
2018-04-10T21:17:03.380Z,33.20
2018-04-10T21:19:30.077Z,36.93
2018-04-10T21:21:56.808Z,33.93
2018-04-10T21:24:23.511Z,35.40
2018-04-10T21:26:50.235Z,40.77
2018-04-10T21:29:16.937Z,37.67
2018-04-10T21:31:43.638Z,42.77
2018-04-10T21:34:10.340Z,32.50
2018-04-10T21:36:37.047Z,35.43
2018-04-10T21:39:03.769Z,38.90
2018-04-10T21:41:30.508Z,35.40
2018-04-10T21:43:57.274Z,35.23
2018-04-10T21:46:23.964Z,35.40
2018-04-10T21:48:50.654Z,34.17
2018-04-10T21:51:17.354Z,31.80
2018-04-10T21:53:44.135Z,33.10
2018-04-10T21:56:10.845Z,35.60
2018-04-10T21:58:37.648Z,34.87
2018-04-10T22:01:04.357Z,34.43
2018-04-10T22:03:31.118Z,36.47
2018-04-10T22:05:57.840Z,35.80
2018-04-10T22:08:24.522Z,35.40
2018-04-10T22:10:51.232Z,37.60
2018-04-10T22:13:17.926Z,34.50
2018-04-10T22:15:44.627Z,35.03
2018-04-10T22:18:11.400Z,36.20
2018-04-10T22:20:38.090Z,36.97
2018-04-10T22:23:04.981Z,43.80
2018-04-10T22:25:31.690Z,34.47
2018-04-10T22:27:58.494Z,39.37
2018-04-10T22:30:25.213Z,40.70
2018-04-10T22:32:51.860Z,37.50
2018-04-10T22:35:18.556Z,34.33
2018-04-10T22:37:45.507Z,32.10
2018-04-10T22:40:12.194Z,26.47
2018-04-10T22:42:38.938Z,24.13
2018-04-10T22:45:05.632Z,24.93
2018-04-10T22:47:32.329Z,23.83
2018-04-10T22:49:59.143Z,21.10
2018-04-10T22:52:25.856Z,20.50
2018-04-10T22:54:52.582Z,18.90
2018-04-10T22:57:19.327Z,22.73
2018-04-10T22:59:46.027Z,20.43
2018-04-10T23:02:12.747Z,17.77
2018-04-10T23:04:39.440Z,17.30
2018-04-10T23:07:06.132Z,17.40
2018-04-10T23:09:32.852Z,17.60
2018-04-10T23:11:59.632Z,16.83
2018-04-10T23:14:26.335Z,15.10
2018-04-10T23:16:53.247Z,17.73
2018-04-10T23:19:19.931Z,17.57
2018-04-10T23:21:46.759Z,18.13
2018-04-10T23:24:13.443Z,16.80
2018-04-10T23:26:40.159Z,18.30
2018-04-10T23:29:06.847Z,18.47
2018-04-10T23:31:33.571Z,17.70
2018-04-10T23:34:00.248Z,16.23
2018-04-10T23:36:26.947Z,16.27
2018-04-10T23:38:53.639Z,15.47
2018-04-10T23:41:20.347Z,14.30
2018-04-10T23:43:47.039Z,12.37
2018-04-10T23:46:13.724Z,15.60
2018-04-10T23:48:40.450Z,14.30
2018-04-10T23:51:07.133Z,13.10
2018-04-10T23:53:33.839Z,13.17
2018-04-10T23:56:00.520Z,14.43
2018-04-10T23:58:27.215Z,15.97
